sensor_id;sensor_type;location;lat;lon;timestamp;pressure;altitude;pressure_sealevel;temperature
82774;BMP280;72508;45.118;20.728;2023-12-20T00:06:46;100540.25;;;9.49
82774;BMP280;72508;45.118;20.728;2023-12-20T00:16:48;100530.59;;;9.50
82774;BMP280;72508;45.118;20.728;2023-12-20T00:26:50;100524.97;;;9.46
82774;BMP280;72508;45.118;20.728;2023-12-20T00:36:52;100511.84;;;9.40
82774;BMP280;72508;45.118;20.728;2023-12-20T00:46:54;100504.44;;;9.37
82774;BMP280;72508;45.118;20.728;2023-12-20T00:56:55;100481.53;;;9.39
82774;BMP280;72508;45.118;20.728;2023-12-20T01:06:59;100463.41;;;9.37
82774;BMP280;72508;45.118;20.728;2023-12-20T01:17:01;100446.50;;;9.40
82774;BMP280;72508;45.118;20.728;2023-12-20T01:27:03;100438.47;;;9.41
82774;BMP280;72508;45.118;20.728;2023-12-20T01:37:05;100417.97;;;9.38
82774;BMP280;72508;45.118;20.728;2023-12-20T01:47:07;100396.47;;;9.29
82774;BMP280;72508;45.118;20.728;2023-12-20T01:57:09;100402.25;;;9.25
82774;BMP280;72508;45.118;20.728;2023-12-20T02:07:11;100386.97;;;9.22
82774;BMP280;72508;45.118;20.728;2023-12-20T02:17:13;100360.81;;;9.08
82774;BMP280;72508;45.118;20.728;2023-12-20T02:27:15;100349.72;;;8.93
82774;BMP280;72508;45.118;20.728;2023-12-20T02:37:16;100348.16;;;8.99
82774;BMP280;72508;45.118;20.728;2023-12-20T02:47:18;100334.47;;;8.97
82774;BMP280;72508;45.118;20.728;2023-12-20T02:57:20;100327.84;;;8.94
82774;BMP280;72508;45.118;20.728;2023-12-20T03:07:21;100310.97;;;8.97
82774;BMP280;72508;45.118;20.728;2023-12-20T03:17:23;100306.75;;;8.89
82774;BMP280;72508;45.118;20.728;2023-12-20T03:27:25;100300.28;;;8.78
82774;BMP280;72508;45.118;20.728;2023-12-20T03:37:27;100283.22;;;8.76
82774;BMP280;72508;45.118;20.728;2023-12-20T03:47:28;100267.94;;;8.73
82774;BMP280;72508;45.118;20.728;2023-12-20T03:57:30;100264.94;;;8.76
82774;BMP280;72508;45.118;20.728;2023-12-20T04:07:32;100246.66;;;8.76
82774;BMP280;72508;45.118;20.728;2023-12-20T04:17:34;100244.63;;;8.64
82774;BMP280;72508;45.118;20.728;2023-12-20T04:27:35;100210.88;;;8.56
82774;BMP280;72508;45.118;20.728;2023-12-20T04:37:37;100207.28;;;8.57
82774;BMP280;72508;45.118;20.728;2023-12-20T04:47:39;100190.00;;;8.56
82774;BMP280;72508;45.118;20.728;2023-12-20T04:57:42;100182.78;;;8.58
82774;BMP280;72508;45.118;20.728;2023-12-20T05:07:44;100174.53;;;8.61
82774;BMP280;72508;45.118;20.728;2023-12-20T05:17:46;100180.78;;;8.60
82774;BMP280;72508;45.118;20.728;2023-12-20T05:27:47;100173.13;;;8.65
82774;BMP280;72508;45.118;20.728;2023-12-20T05:37:49;100175.97;;;8.71
82774;BMP280;72508;45.118;20.728;2023-12-20T05:47:51;100161.88;;;8.65
82774;BMP280;72508;45.118;20.728;2023-12-20T05:57:52;100151.25;;;8.66
82774;BMP280;72508;45.118;20.728;2023-12-20T06:07:54;100147.84;;;8.46
82774;BMP280;72508;45.118;20.728;2023-12-20T06:17:58;100143.81;;;8.37
82774;BMP280;72508;45.118;20.728;2023-12-20T06:28:00;100139.56;;;8.22
82774;BMP280;72508;45.118;20.728;2023-12-20T06:38:01;100132.06;;;7.93
82774;BMP280;72508;45.118;20.728;2023-12-20T06:48:04;100150.59;;;8.24
82774;BMP280;72508;45.118;20.728;2023-12-20T06:58:06;100130.34;;;8.46
82774;BMP280;72508;45.118;20.728;2023-12-20T07:08:08;100119.72;;;8.48
82774;BMP280;72508;45.118;20.728;2023-12-20T07:18:11;100114.09;;;8.51
82774;BMP280;72508;45.118;20.728;2023-12-20T07:28:14;100103.66;;;8.31
82774;BMP280;72508;45.118;20.728;2023-12-20T07:38:16;100114.91;;;8.58
82774;BMP280;72508;45.118;20.728;2023-12-20T07:48:29;100114.09;;;8.78
82774;BMP280;72508;45.118;20.728;2023-12-20T07:58:31;100124.09;;;8.87
82774;BMP280;72508;45.118;20.728;2023-12-20T08:08:35;100118.41;;;9.17
82774;BMP280;72508;45.118;20.728;2023-12-20T08:18:38;100103.13;;;9.27
82774;BMP280;72508;45.118;20.728;2023-12-20T08:28:41;100074.19;;;9.16
82774;BMP280;72508;45.118;20.728;2023-12-20T08:38:46;100086.00;;;9.31
82774;BMP280;72508;45.118;20.728;2023-12-20T08:49:09;100099.47;;;9.35
82774;BMP280;72508;45.118;20.728;2023-12-20T08:59:12;100080.53;;;9.46
82774;BMP280;72508;45.118;20.728;2023-12-20T09:09:14;100090.34;;;9.83
82774;BMP280;72508;45.118;20.728;2023-12-20T09:19:19;100077.84;;;9.91
82774;BMP280;72508;45.118;20.728;2023-12-20T09:29:25;100070.91;;;10.04
82774;BMP280;72508;45.118;20.728;2023-12-20T09:39:30;100046.47;;;10.17
82774;BMP280;72508;45.118;20.728;2023-12-20T09:49:36;100040.75;;;10.63
82774;BMP280;72508;45.118;20.728;2023-12-20T09:59:39;100046.13;;;10.68
82774;BMP280;72508;45.118;20.728;2023-12-20T10:09:51;100039.88;;;10.88
82774;BMP280;72508;45.118;20.728;2023-12-20T10:19:58;100031.06;;;11.73
82774;BMP280;72508;45.118;20.728;2023-12-20T10:30:00;100034.00;;;11.22
82774;BMP280;72508;45.118;20.728;2023-12-20T10:40:05;100014.88;;;11.04
82774;BMP280;72508;45.118;20.728;2023-12-20T10:50:08;100006.38;;;11.08
82774;BMP280;72508;45.118;20.728;2023-12-20T11:00:14;99996.63;;;10.97
82774;BMP280;72508;45.118;20.728;2023-12-20T11:10:30;99974.34;;;10.76
82774;BMP280;72508;45.118;20.728;2023-12-20T11:20:37;99959.03;;;10.73
82774;BMP280;72508;45.118;20.728;2023-12-20T11:30:46;99949.84;;;10.70
82774;BMP280;72508;45.118;20.728;2023-12-20T11:40:54;99944.41;;;10.35
82774;BMP280;72508;45.118;20.728;2023-12-20T11:50:56;99925.66;;;9.94
82774;BMP280;72508;45.118;20.728;2023-12-20T12:01:00;99965.69;;;9.95
82774;BMP280;72508;45.118;20.728;2023-12-20T12:11:04;99970.38;;;9.86
82774;BMP280;72508;45.118;20.728;2023-12-20T12:21:26;99947.50;;;9.57
82774;BMP280;72508;45.118;20.728;2023-12-20T12:31:27;99958.25;;;9.48
82774;BMP280;72508;45.118;20.728;2023-12-20T12:41:31;99952.81;;;9.75
82774;BMP280;72508;45.118;20.728;2023-12-20T12:51:32;99953.44;;;9.70
82774;BMP280;72508;45.118;20.728;2023-12-20T13:01:34;99956.09;;;9.64
82774;BMP280;72508;45.118;20.728;2023-12-20T13:11:35;99964.25;;;9.49
82774;BMP280;72508;45.118;20.728;2023-12-20T13:21:37;99985.66;;;9.39
82774;BMP280;72508;45.118;20.728;2023-12-20T13:31:38;99982.16;;;9.14
82774;BMP280;72508;45.118;20.728;2023-12-20T13:41:41;99961.53;;;8.99
82774;BMP280;72508;45.118;20.728;2023-12-20T13:51:42;99979.09;;;8.78
82774;BMP280;72508;45.118;20.728;2023-12-20T14:01:43;99977.31;;;8.65
82774;BMP280;72508;45.118;20.728;2023-12-20T14:11:45;99993.22;;;8.57
82774;BMP280;72508;45.118;20.728;2023-12-20T14:21:50;100012.72;;;8.48
82774;BMP280;72508;45.118;20.728;2023-12-20T14:31:51;100011.72;;;8.36
82774;BMP280;72508;45.118;20.728;2023-12-20T14:41:52;100036.03;;;8.16
82774;BMP280;72508;45.118;20.728;2023-12-20T14:51:55;100045.25;;;8.12
82774;BMP280;72508;45.118;20.728;2023-12-20T15:01:57;100033.41;;;8.03
82774;BMP280;72508;45.118;20.728;2023-12-20T15:11:58;100033.78;;;8.00
82774;BMP280;72508;45.118;20.728;2023-12-20T15:22:00;100046.63;;;7.75
82774;BMP280;72508;45.118;20.728;2023-12-20T15:32:01;100062.56;;;7.52
82774;BMP280;72508;45.118;20.728;2023-12-20T15:42:05;100073.31;;;7.35
82774;BMP280;72508;45.118;20.728;2023-12-20T15:52:06;100093.13;;;7.30
82774;BMP280;72508;45.118;20.728;2023-12-20T16:02:08;100089.72;;;7.29
82774;BMP280;72508;45.118;20.728;2023-12-20T16:12:09;100092.88;;;7.18
82774;BMP280;72508;45.118;20.728;2023-12-20T16:22:11;100091.78;;;7.06
82774;BMP280;72508;45.118;20.728;2023-12-20T16:32:13;100078.59;;;6.79
82774;BMP280;72508;45.118;20.728;2023-12-20T16:42:14;100114.03;;;6.73
82774;BMP280;72508;45.118;20.728;2023-12-20T16:52:16;100132.41;;;6.72
82774;BMP280;72508;45.118;20.728;2023-12-20T17:02:18;100144.34;;;6.59
82774;BMP280;72508;45.118;20.728;2023-12-20T17:12:20;100152.41;;;6.43
82774;BMP280;72508;45.118;20.728;2023-12-20T17:22:22;100155.53;;;6.38
82774;BMP280;72508;45.118;20.728;2023-12-20T17:32:24;100184.63;;;6.27
82774;BMP280;72508;45.118;20.728;2023-12-20T17:42:26;100202.38;;;6.02
82774;BMP280;72508;45.118;20.728;2023-12-20T17:52:27;100212.22;;;5.92
82774;BMP280;72508;45.118;20.728;2023-12-20T18:02:29;100228.38;;;6.02
82774;BMP280;72508;45.118;20.728;2023-12-20T18:12:30;100241.88;;;5.97
82774;BMP280;72508;45.118;20.728;2023-12-20T18:22:32;100252.56;;;5.88
82774;BMP280;72508;45.118;20.728;2023-12-20T18:32:35;100250.59;;;5.90
82774;BMP280;72508;45.118;20.728;2023-12-20T18:42:37;100264.22;;;5.92
82774;BMP280;72508;45.118;20.728;2023-12-20T18:52:38;100268.50;;;5.85
82774;BMP280;72508;45.118;20.728;2023-12-20T19:02:40;100281.16;;;5.73
82774;BMP280;72508;45.118;20.728;2023-12-20T19:12:41;100277.31;;;5.84
82774;BMP280;72508;45.118;20.728;2023-12-20T19:22:43;100295.97;;;5.87
82774;BMP280;72508;45.118;20.728;2023-12-20T19:32:45;100302.59;;;5.90
82774;BMP280;72508;45.118;20.728;2023-12-20T19:42:47;100307.59;;;5.76
82774;BMP280;72508;45.118;20.728;2023-12-20T19:52:48;100306.63;;;5.77
82774;BMP280;72508;45.118;20.728;2023-12-20T20:02:50;100313.22;;;5.80
82774;BMP280;72508;45.118;20.728;2023-12-20T20:12:52;100319.84;;;5.68
82774;BMP280;72508;45.118;20.728;2023-12-20T20:22:53;100320.28;;;5.71
82774;BMP280;72508;45.118;20.728;2023-12-20T20:32:55;100333.66;;;5.68
82774;BMP280;72508;45.118;20.728;2023-12-20T20:42:57;100347.13;;;5.72
82774;BMP280;72508;45.118;20.728;2023-12-20T20:52:59;100358.31;;;5.72
82774;BMP280;72508;45.118;20.728;2023-12-20T21:03:00;100346.75;;;5.75
82774;BMP280;72508;45.118;20.728;2023-12-20T21:13:02;100346.84;;;5.82
82774;BMP280;72508;45.118;20.728;2023-12-20T21:23:04;100344.19;;;5.90
82774;BMP280;72508;45.118;20.728;2023-12-20T21:33:10;100335.03;;;5.94
82774;BMP280;72508;45.118;20.728;2023-12-20T21:43:12;100329.13;;;6.00
82774;BMP280;72508;45.118;20.728;2023-12-20T21:53:13;100329.59;;;6.18
82774;BMP280;72508;45.118;20.728;2023-12-20T22:03:15;100329.06;;;6.23
82774;BMP280;72508;45.118;20.728;2023-12-20T22:13:17;100322.44;;;6.35
82774;BMP280;72508;45.118;20.728;2023-12-20T22:23:19;100307.97;;;6.33
82774;BMP280;72508;45.118;20.728;2023-12-20T22:33:20;100322.31;;;6.29
82774;BMP280;72508;45.118;20.728;2023-12-20T22:43:22;100300.25;;;6.25
82774;BMP280;72508;45.118;20.728;2023-12-20T22:53:24;100296.31;;;6.29
82774;BMP280;72508;45.118;20.728;2023-12-20T23:03:26;100300.06;;;6.41
82774;BMP280;72508;45.118;20.728;2023-12-20T23:13:28;100289.66;;;6.41
82774;BMP280;72508;45.118;20.728;2023-12-20T23:23:29;100299.06;;;6.42
82774;BMP280;72508;45.118;20.728;2023-12-20T23:33:33;100297.00;;;6.52
82774;BMP280;72508;45.118;20.728;2023-12-20T23:43:35;100297.38;;;6.49
82774;BMP280;72508;45.118;20.728;2023-12-20T23:53:37;100293.97;;;6.34
